• Join FlightAware (Why Join?)
  • Login
  • US Flag 
10:26PM EDT


 

Airport Tracker/Info


-or-


 

Live Flight TrackerFlight Track Log ✈ SWA534 ✈ 06-Sep-2013 ✈ KLAS - KSAN

Flight Track Log - Related Links

Times and Time Zones

All times are in EDT time to prevent confusion due to time zone crossing. See the SWA534 flight status page for this flight to view local times or setup timezone preferences in your user account.

Time Position Orientation Groundspeed Altitude Reporting Facility
EDT Latitude Longitude Course Direction KTS MPH feet Rate Location/Type
12:46AM 36.0714 -115.2361 264° West 224 258 5,000  Level Los Angeles Center
12:47AM 36.0631 -115.2508 235° Southwest 229 264 5,600 1,740 Climbing Los Angeles Center
12:47AM 36.0244 -115.2783 210° Southwest 268 308 6,600 1,440 Climbing Los Angeles Center
12:48AM 35.9978 -115.2897 199° South 254 292 7,100 1,200 Climbing Los Angeles Center
12:49AM 35.9197 -115.3092 191° South 272 313 8,400 1,800 Climbing Los Angeles Center
12:50AM 35.8372 -115.3139 183° South 287 330 10,900 2,640 Climbing Los Angeles Center
12:51AM 35.7425 -115.3156 181° South 325 374 13,800 3,060 Climbing Los Angeles Center
12:52AM 35.6508 -115.3439 194° South 336 387 17,200 2,640 Climbing Los Angeles Center
12:53AM 35.5561 -115.3714 193° South 343 395 19,200 2,160 Climbing Los Angeles Center
12:54AM 35.4539 -115.3997 193° South 365 420 21,700 2,400 Climbing Los Angeles Center
12:55AM 35.3303 -115.4358 193° South 378 435 24,200 2,040 Climbing Los Angeles Center
12:56AM 35.2208 -115.4667 193° South 398 458 25,900 1,500 Climbing Los Angeles Center
12:57AM 35.1433 -115.4889 193° South 407 468 27,300 1,020 Climbing Los Angeles Center
12:58AM 35.0075 -115.5269 193° South 415 478 28,000 300 Climbing Los Angeles Center
12:59AM 34.8769 -115.5642 193° South 429 494 28,000  Level Los Angeles Center
01:00AM 34.7719 -115.5942 193° South 432 497 28,000  Level Los Angeles Center
01:01AM 34.6556 -115.6267 193° South 430 495 28,000  Level Los Angeles Center
01:02AM 34.5422 -115.6578 193° South 422 486 28,000  Level Los Angeles Center
01:03AM 34.4056 -115.6953 193° South 419 482 28,000  Level Los Angeles Center
01:04AM 34.3036 -115.7253 194° South 419 482 28,000  Level Los Angeles Center
01:05AM 34.1911 -115.7547 192° South 414 476 28,000 -60 Level Los Angeles Center
01:06AM 34.0789 -115.7881 194° South 414 476 27,900 -60 Descending Los Angeles Center
01:07AM 33.9661 -115.8183 193° South 416 479 27,900  Level Los Angeles Center
01:08AM 33.8317 -115.8558 193° South 412 474 28,000  Climbing Los Angeles Center
01:09AM 33.7186 -115.8878 193° South 415 478 28,000 -1,020 Level Los Angeles Center
01:10AM 33.6061 -115.9169 192° South 415 478 26,000 -2,040 Descending Los Angeles Center
01:11AM 33.5025 -115.9589 199° South 400 460 23,900 -1,380 Descending Los Angeles Center
01:12AM 33.4206 -116.0378 219° Southwest 381 438 23,300 -1,440 Descending Los Angeles Center
01:13AM 33.3258 -116.1303 219° Southwest 367 422 20,800 -2,100 Descending Los Angeles Center
01:14AM 33.2497 -116.2058 220° Southwest 359 413 18,700 -2,100 Descending Los Angeles Center
01:15AM 33.1778 -116.2767 219° Southwest 342 394 16,600 -2,040 Descending Los Angeles Center
01:17AM 33.1053 -116.3464 219° Southwest 337 388 14,600 -2,100 Descending Los Angeles Center
01:18AM 33.0267 -116.4236 219° Southwest 330 380 12,400 -1,320 Descending Los Angeles Center
01:19AM 32.9481 -116.4772 210° Southwest 326 375 12,000 -840 Descending Los Angeles Center
01:20AM 32.8669 -116.5244 206° Southwest 325 374 10,800 -1,140 Descending Los Angeles Center
01:21AM 32.8125 -116.5981 229° Southwest 311 358 9,700 -1,260 Descending Los Angeles Center
01:22AM 32.7722 -116.6817 240° Southwest 297 342 8,300 -1,440 Descending Los Angeles Center
01:23AM 32.7331 -116.7647 241° Southwest 293 337 6,800 -1,380 Descending Los Angeles Center
01:24AM 32.7025 -116.8494 247° West 286 329 5,600 -1,320 Descending Los Angeles Center
01:25AM 32.6753 -116.9289 248° West 273 314 4,200 -1,080 Descending Los Angeles Center
01:26AM 32.6894 -117.0075 282° West 258 297 3,500 -780 Descending Los Angeles Center
01:27AM 32.7042 -117.0678 286° West 220 253 2,700 -1,140 Descending Los Angeles Center
01:28AM 32.7164 -117.1172 286° West 183 211 1,200 -1,140 Descending Los Angeles Center
01:29AM 32.7278 -117.1617 287° West 160 184 400 11,160 Descending Los Angeles Center
01:30AM 32.7361 -117.1983 285° West 118 136 24,000 23,160 Climbing Los Angeles Center